Aigaion — SYMC — position and weather

sailwx.info

Track history (hours):
 
Tides and Currents Weather Stations Pressure Air Temp Water Temp Dewpoint Dewpoint Depression Visibility Wind Speed Wind Dir Waves Ship Positions

Aigaion

Last reported at 2017-May-16 21:53 UTC. Time now 2017-May-25 01:03 UTC.
Position S 20°19' E 118°35'.
Warning: this ship's position is 8 days out of date.

Length 289 m; draft 8.5 m.

Type: Cargo ship. MMSI: 240174000.

Date/timePositionNaut miles runAvg speedWind from/ knotsBaromVisibWave heightAir tempDewpointWater temp
2017-May-16 21:53S 20°19' E 118°35'0 0.0
2017-May-16 21:29S 20°19' E 118°35'0 0.0
2017-May-16 20:35S 20°19' E 118°35'0 0.0
2017-May-16 20:24S 20°19' E 118°35'0 0.2
2017-May-16 20:00S 20°19' E 118°35'1 1.8
2017-May-16 19:29S 20°18' E 118°35'4 8.0
2017-May-16 19:00S 20°15' E 118°34'5 8.7
2017-May-16 18:29S 20°10' E 118°33'2 3.0
2017-May-16 18:00S 20°09' E 118°33'2 3.5
2017-May-16 17:30S 20°07' E 118°34'2 3.2
2017-May-16 17:00S 20°06' E 118°35'1 0.9
2017-May-16 16:16S 20°06' E 118°36'0 0.0
2017-May-16 15:22S 20°07' E 118°36'0 0.0
2017-May-16 14:52S 20°07' E 118°36'0 0.1
2017-May-16 13:52S 20°07' E 118°36'0 0.0
2017-May-16 13:22S 20°07' E 118°36'0 0.1
2017-May-16 12:52S 20°07' E 118°36'0 0.0
2017-May-16 12:28S 20°07' E 118°36'0 0.2
2017-May-16 10:58S 20°06' E 118°36'0 0.0
2017-May-16 08:22S 20°06' E 118°35'0 0.1
2017-May-16 07:58S 20°06' E 118°36'0 0.1
2017-May-16 07:16S 20°06' E 118°36'0 0.1
2017-May-16 06:52S 20°06' E 118°36'0 0.1
2017-May-16 06:22S 20°06' E 118°36'0 0.0
2017-May-16 04:22S 20°06' E 118°36'0 0.0
2017-May-16 03:16S 20°06' E 118°36'0 0.0
2017-May-16 02:58S 20°06' E 118°36'0 0.0
2017-May-16 02:28S 20°06' E 118°36'0 0.0
2017-May-16 01:58S 20°06' E 118°36'0 0.0
2017-May-16 01:28S 20°06' E 118°36'0 0.0
2017-May-16 00:46S 20°06' E 118°36'0 0.1
2017-May-16 00:28S 20°06' E 118°36'0 0.2
2017-May-15 23:58S 20°06' E 118°36'0 0.1
2017-May-15 23:22S 20°06' E 118°36'0 0.1
2017-May-15 22:58S 20°06' E 118°36'0 0.1
2017-May-15 22:22S 20°06' E 118°35'0 0.0
2017-May-15 21:52S 20°06' E 118°35'0 0.0
2017-May-15 21:28S 20°06' E 118°35'0 0.0
2017-May-15 20:52S 20°06' E 118°35'0 0.1
2017-May-15 20:22S 20°06' E 118°36'0 0.0
2017-May-15 19:52S 20°06' E 118°36'0 0.1
2017-May-15 17:40S 20°06' E 118°36'0 0.1
2017-May-15 17:16S 20°06' E 118°36'0 0.1
2017-May-15 16:40S 20°06' E 118°36'0 0.0
2017-May-15 16:22S 20°06' E 118°36'0 0.0
2017-May-15 15:58S 20°06' E 118°36'0 0.0
2017-May-15 15:22S 20°06' E 118°36'0 0.0
2017-May-15 14:58S 20°06' E 118°36'0 0.0
2017-May-15 13:40S 20°06' E 118°36'0 0.0
2017-May-15 12:46S 20°07' E 118°36'0 0.2
2017-May-15 11:34S 20°06' E 118°36'0 0.2
2017-May-15 11:16S 20°06' E 118°36'0 0.2
2017-May-15 10:58S 20°06' E 118°35'0 0.1
2017-May-15 10:28S 20°06' E 118°35'0 0.0
2017-May-15 08:46S 20°06' E 118°35'0 0.0
2017-May-15 08:22S 20°06' E 118°35'0 0.0
2017-May-15 07:46S 20°06' E 118°35'0 0.0
2017-May-15 07:28S 20°06' E 118°35'0 0.2
2017-May-15 06:58S 20°06' E 118°35'0 0.3
2017-May-15 06:28S 20°06' E 118°35'0 0.3
2017-May-15 05:58S 20°07' E 118°35'0 0.2
2017-May-15 05:22S 20°07' E 118°36'0 0.0
2017-May-15 04:58S 20°07' E 118°36'0 0.0
2017-May-15 04:28S 20°07' E 118°36'0 0.0
2017-May-15 03:10S 20°07' E 118°36'0 0.0
2017-May-15 02:58S 20°07' E 118°36'0 0.0
2017-May-15 02:28S 20°07' E 118°36'0 0.0
2017-May-15 01:46S 20°07' E 118°36'0 0.0
2017-May-15 01:22S 20°07' E 118°36'0 0.0
2017-May-15 00:58S 20°07' E 118°36'0 0.1
2017-May-15 00:22S 20°07' E 118°36'0 0.2
2017-May-14 23:52S 20°07' E 118°35'0 0.2
2017-May-14 22:34S 20°06' E 118°35'0 0.0
2017-May-14 22:10S 20°06' E 118°35'0 0.0
2017-May-14 21:46S 20°06' E 118°35'0 0.0
2017-May-14 21:28S 20°06' E 118°35'0 0.0
2017-May-14 20:58S 20°06' E 118°35'0 0.0
2017-May-14 20:28S 20°06' E 118°35'0 0.0
2017-May-14 17:58S 20°06' E 118°35'0 0.1
2017-May-14 17:28S 20°06' E 118°36'0 0.2
2017-May-14 16:34S 20°06' E 118°36'0 0.1
2017-May-14 16:10S 20°06' E 118°36'0 0.1
2017-May-14 15:58S 20°06' E 118°36'0 0.1
2017-May-14 15:28S 20°07' E 118°36'0 0.0
2017-May-14 14:46S 20°07' E 118°36'0 0.0
2017-May-14 14:28S 20°07' E 118°36'0 0.0
2017-May-14 13:28S 20°07' E 118°36'0 0.0
2017-May-14 12:58S 20°07' E 118°36'0 0.0
2017-May-14 12:28S 20°07' E 118°36'0 0.1
2017-May-14 11:46S 20°07' E 118°36'0 0.2
2017-May-14 11:28S 20°07' E 118°35'0 0.1
2017-May-14 09:10S 20°06' E 118°35'0 0.0
2017-May-14 08:58S 20°06' E 118°35'0 0.0
2017-May-14 08:28S 20°06' E 118°35'0 0.0
2017-May-14 07:58S 20°06' E 118°35'0 0.0
2017-May-14 07:22S 20°06' E 118°35'0 0.0
2017-May-14 06:58S 20°06' E 118°35'0 0.1
2017-May-14 03:58S 20°07' E 118°36'0 0.0
2017-May-14 03:10S 20°07' E 118°36'0 0.0
2017-May-14 02:58S 20°07' E 118°36'0 0.0
2017-May-14 02:28S 20°07' E 118°36'0 0.0
2017-May-14 01:46S 20°07' E 118°36'0 0.0
2017-May-14 01:28S 20°07' E 118°36'0 0.0
2017-May-14 00:52S 20°07' E 118°36'0 0.2
2017-May-13 23:34S 20°06' E 118°35'0 0.2
2017-May-13 23:16S 20°06' E 118°35'0 0.0
2017-May-13 22:52S 20°06' E 118°35'0 0.0
2017-May-13 22:16S 20°06' E 118°35'0 0.0
2017-May-13 21:52S 20°06' E 118°35'0 0.0
2017-May-13 20:10S 20°06' E 118°35'0 0.0
2017-May-13 19:46S 20°06' E 118°35'0 0.0
2017-May-13 19:28S 20°06' E 118°35'0 0.0
2017-May-13 17:58S 20°06' E 118°35'0 0.0
2017-May-13 17:28S 20°06' E 118°35'0 0.2
2017-May-13 16:10S 20°06' E 118°36'0 0.1
2017-May-13 15:58S 20°06' E 118°36'0 0.0
2017-May-13 15:28S 20°06' E 118°36'0 0.1
2017-May-13 14:58S 20°06' E 118°36'0 0.0
2017-May-13 14:28S 20°07' E 118°36'0 0.1
2017-May-13 13:22S 20°07' E 118°36'0 0.0
2017-May-13 12:58S 20°07' E 118°36'0 0.0
2017-May-13 12:16S 20°07' E 118°36'0 0.0
2017-May-13 11:58S 20°07' E 118°36'0 0.0
2017-May-13 11:10S 20°07' E 118°36'0 0.5
2017-May-13 10:58S 20°06' E 118°36'0 0.4
2017-May-13 10:28S 20°06' E 118°35'0 0.1
2017-May-13 09:28S 20°06' E 118°35'0 0.1
2017-May-13 08:52S 20°06' E 118°35'0 0.0
2017-May-13 07:46S 20°06' E 118°35'0 0.0
2017-May-13 07:28S 20°06' E 118°35'0 0.1
2017-May-13 06:16S 20°06' E 118°35'0 0.2
2017-May-13 05:58S 20°06' E 118°35'0 0.2
2017-May-13 05:22S 20°06' E 118°36'0 0.1
2017-May-13 04:34S 20°06' E 118°36'0 0.0
2017-May-13 04:28S 20°06' E 118°36'0 0.0
2017-May-13 03:58S 20°06' E 118°36'0 0.1
2017-May-13 03:28S 20°06' E 118°36'0 0.1
2017-May-13 02:40S 20°06' E 118°36'0 0.0
2017-May-13 02:28S 20°06' E 118°36'0 0.0
2017-May-13 01:46S 20°07' E 118°36'0 0.0
2017-May-13 00:46S 20°07' E 118°36'0 0.1
2017-May-13 00:22S 20°06' E 118°36'0 0.0
2017-May-12 23:58S 20°06' E 118°36'0 0.0
2017-May-12 23:22S 20°06' E 118°36'0 0.3
2017-May-12 22:58S 20°06' E 118°36'0 0.3
2017-May-12 22:22S 20°06' E 118°35'0 0.0
2017-May-12 20:52S 20°06' E 118°35'0 0.1
2017-May-12 19:58S 20°06' E 118°35'0 0.1
2017-May-12 19:22S 20°06' E 118°35'0 0.1
2017-May-12 19:00S 20°06' E 118°35'1 1.1
2017-May-12 18:30S 20°06' E 118°35'1 1.7
2017-May-12 18:00S 20°07' E 118°36'1 2.6
2017-May-12 17:30S 20°07' E 118°34'2 3.8
2017-May-12 17:00S 20°05' E 118°33'3 6.5
2017-May-12 16:30S 20°02' E 118°32'4 8.7
2017-May-12 16:00S 19°58' E 118°29'510.3
2017-May-12 15:30S 19°54' E 118°27'611.0
2017-May-12 15:00S 19°48' E 118°26'1111.3
2017-May-12 14:00S 19°37' E 118°23'611.4
2017-May-12 13:30S 19°32' E 118°22'611.5
2017-May-12 13:00S 19°26' E 118°21'611.4
2017-May-12 12:29S 19°21' E 118°19'611.0
2017-May-12 11:59S 19°15' E 118°18'510.9
2017-May-12 11:29S 19°10' E 118°16'510.9
2017-May-12 11:00S 19°05' E 118°15'510.7
2017-May-12 10:29S 18°59' E 118°13'510.5
2017-May-12 10:00S 18°54' E 118°12'1010.1
2017-May-12 08:59S 18°45' E 118°09'73 8.8
2017-May-12 00:41S 17°33' E 117°52'1 7.3
2017-May-12 00:30S 17°32' E 117°52'21 9.7
2017-May-11 22:22S 17°12' E 117°47'  
Track history (hours):
 
Tides and Currents Weather Stations Pressure Air Temp Water Temp Dewpoint Dewpoint Depression Visibility Wind Speed Wind Dir Waves Ship Positions

Aigaion

Last reported at 2017-May-16 21:53 UTC. Time now 2017-May-25 01:03 UTC.
Position S 20°19' E 118°35'.
Warning: this ship's position is 8 days out of date.

Length 289 m; draft 8.5 m.

Type: Cargo ship. MMSI: 240174000.

Date/timePositionNaut miles runAvg speedWind from/ knotsBaromVisibWave heightAir tempDewpointWater temp
2017-May-16 21:53S 20°19' E 118°35'0 0.0
2017-May-16 21:29S 20°19' E 118°35'0 0.0
2017-May-16 20:35S 20°19' E 118°35'0 0.0
2017-May-16 20:24S 20°19' E 118°35'0 0.2
2017-May-16 20:00S 20°19' E 118°35'1 1.8
2017-May-16 19:29S 20°18' E 118°35'4 8.0
2017-May-16 19:00S 20°15' E 118°34'5 8.7
2017-May-16 18:29S 20°10' E 118°33'2 3.0
2017-May-16 18:00S 20°09' E 118°33'2 3.5
2017-May-16 17:30S 20°07' E 118°34'2 3.2
2017-May-16 17:00S 20°06' E 118°35'1 0.9
2017-May-16 16:16S 20°06' E 118°36'0 0.0
2017-May-16 15:22S 20°07' E 118°36'0 0.0
2017-May-16 14:52S 20°07' E 118°36'0 0.1
2017-May-16 13:52S 20°07' E 118°36'0 0.0
2017-May-16 13:22S 20°07' E 118°36'0 0.1
2017-May-16 12:52S 20°07' E 118°36'0 0.0
2017-May-16 12:28S 20°07' E 118°36'0 0.2
2017-May-16 10:58S 20°06' E 118°36'0 0.0
2017-May-16 08:22S 20°06' E 118°35'0 0.1
2017-May-16 07:58S 20°06' E 118°36'0 0.1
2017-May-16 07:16S 20°06' E 118°36'0 0.1
2017-May-16 06:52S 20°06' E 118°36'0 0.1
2017-May-16 06:22S 20°06' E 118°36'0 0.0
2017-May-16 04:22S 20°06' E 118°36'0 0.0
2017-May-16 03:16S 20°06' E 118°36'0 0.0
2017-May-16 02:58S 20°06' E 118°36'0 0.0
2017-May-16 02:28S 20°06' E 118°36'0 0.0
2017-May-16 01:58S 20°06' E 118°36'0 0.0
2017-May-16 01:28S 20°06' E 118°36'0 0.0
2017-May-16 00:46S 20°06' E 118°36'0 0.1
2017-May-16 00:28S 20°06' E 118°36'0 0.2
2017-May-15 23:58S 20°06' E 118°36'0 0.1
2017-May-15 23:22S 20°06' E 118°36'0 0.1
2017-May-15 22:58S 20°06' E 118°36'0 0.1
2017-May-15 22:22S 20°06' E 118°35'0 0.0
2017-May-15 21:52S 20°06' E 118°35'0 0.0
2017-May-15 21:28S 20°06' E 118°35'0 0.0
2017-May-15 20:52S 20°06' E 118°35'0 0.1
2017-May-15 20:22S 20°06' E 118°36'0 0.0
2017-May-15 19:52S 20°06' E 118°36'0 0.1
2017-May-15 17:40S 20°06' E 118°36'0 0.1
2017-May-15 17:16S 20°06' E 118°36'0 0.1
2017-May-15 16:40S 20°06' E 118°36'0 0.0
2017-May-15 16:22S 20°06' E 118°36'0 0.0
2017-May-15 15:58S 20°06' E 118°36'0 0.0
2017-May-15 15:22S 20°06' E 118°36'0 0.0
2017-May-15 14:58S 20°06' E 118°36'0 0.0
2017-May-15 13:40S 20°06' E 118°36'0 0.0
2017-May-15 12:46S 20°07' E 118°36'0 0.2
2017-May-15 11:34S 20°06' E 118°36'0 0.2
2017-May-15 11:16S 20°06' E 118°36'0 0.2
2017-May-15 10:58S 20°06' E 118°35'0 0.1
2017-May-15 10:28S 20°06' E 118°35'0 0.0
2017-May-15 08:46S 20°06' E 118°35'0 0.0
2017-May-15 08:22S 20°06' E 118°35'0 0.0
2017-May-15 07:46S 20°06' E 118°35'0 0.0
2017-May-15 07:28S 20°06' E 118°35'0 0.2
2017-May-15 06:58S 20°06' E 118°35'0 0.3
2017-May-15 06:28S 20°06' E 118°35'0 0.3
2017-May-15 05:58S 20°07' E 118°35'0 0.2
2017-May-15 05:22S 20°07' E 118°36'0 0.0
2017-May-15 04:58S 20°07' E 118°36'0 0.0
2017-May-15 04:28S 20°07' E 118°36'0 0.0
2017-May-15 03:10S 20°07' E 118°36'0 0.0
2017-May-15 02:58S 20°07' E 118°36'0 0.0
2017-May-15 02:28S 20°07' E 118°36'0 0.0
2017-May-15 01:46S 20°07' E 118°36'0 0.0
2017-May-15 01:22S 20°07' E 118°36'0 0.0
2017-May-15 00:58S 20°07' E 118°36'0 0.1
2017-May-15 00:22S 20°07' E 118°36'0 0.2
2017-May-14 23:52S 20°07' E 118°35'0 0.2
2017-May-14 22:34S 20°06' E 118°35'0 0.0
2017-May-14 22:10S 20°06' E 118°35'0 0.0
2017-May-14 21:46S 20°06' E 118°35'0 0.0
2017-May-14 21:28S 20°06' E 118°35'0 0.0
2017-May-14 20:58S 20°06' E 118°35'0 0.0
2017-May-14 20:28S 20°06' E 118°35'0 0.0
2017-May-14 17:58S 20°06' E 118°35'0 0.1
2017-May-14 17:28S 20°06' E 118°36'0 0.2
2017-May-14 16:34S 20°06' E 118°36'0 0.1
2017-May-14 16:10S 20°06' E 118°36'0 0.1
2017-May-14 15:58S 20°06' E 118°36'0 0.1
2017-May-14 15:28S 20°07' E 118°36'0 0.0
2017-May-14 14:46S 20°07' E 118°36'0 0.0
2017-May-14 14:28S 20°07' E 118°36'0 0.0
2017-May-14 13:28S 20°07' E 118°36'0 0.0
2017-May-14 12:58S 20°07' E 118°36'0 0.0
2017-May-14 12:28S 20°07' E 118°36'0 0.1
2017-May-14 11:46S 20°07' E 118°36'0 0.2
2017-May-14 11:28S 20°07' E 118°35'0 0.1
2017-May-14 09:10S 20°06' E 118°35'0 0.0
2017-May-14 08:58S 20°06' E 118°35'0 0.0
2017-May-14 08:28S 20°06' E 118°35'0 0.0
2017-May-14 07:58S 20°06' E 118°35'0 0.0
2017-May-14 07:22S 20°06' E 118°35'0 0.0
2017-May-14 06:58S 20°06' E 118°35'0 0.1
2017-May-14 03:58S 20°07' E 118°36'0 0.0
2017-May-14 03:10S 20°07' E 118°36'0 0.0
2017-May-14 02:58S 20°07' E 118°36'0 0.0
2017-May-14 02:28S 20°07' E 118°36'0 0.0
2017-May-14 01:46S 20°07' E 118°36'0 0.0
2017-May-14 01:28S 20°07' E 118°36'0 0.0
2017-May-14 00:52S 20°07' E 118°36'0 0.2
2017-May-13 23:34S 20°06' E 118°35'0 0.2
2017-May-13 23:16S 20°06' E 118°35'0 0.0
2017-May-13 22:52S 20°06' E 118°35'0 0.0
2017-May-13 22:16S 20°06' E 118°35'0 0.0
2017-May-13 21:52S 20°06' E 118°35'0 0.0
2017-May-13 20:10S 20°06' E 118°35'0 0.0
2017-May-13 19:46S 20°06' E 118°35'0 0.0
2017-May-13 19:28S 20°06' E 118°35'0 0.0
2017-May-13 17:58S 20°06' E 118°35'0 0.0
2017-May-13 17:28S 20°06' E 118°35'0 0.2
2017-May-13 16:10S 20°06' E 118°36'0 0.1
2017-May-13 15:58S 20°06' E 118°36'0 0.0
2017-May-13 15:28S 20°06' E 118°36'0 0.1
2017-May-13 14:58S 20°06' E 118°36'0 0.0
2017-May-13 14:28S 20°07' E 118°36'0 0.1
2017-May-13 13:22S 20°07' E 118°36'0 0.0
2017-May-13 12:58S 20°07' E 118°36'0 0.0
2017-May-13 12:16S 20°07' E 118°36'0 0.0
2017-May-13 11:58S 20°07' E 118°36'0 0.0
2017-May-13 11:10S 20°07' E 118°36'0 0.5
2017-May-13 10:58S 20°06' E 118°36'0 0.4
2017-May-13 10:28S 20°06' E 118°35'0 0.1
2017-May-13 09:28S 20°06' E 118°35'0 0.1
2017-May-13 08:52S 20°06' E 118°35'0 0.0
2017-May-13 07:46S 20°06' E 118°35'0 0.0
2017-May-13 07:28S 20°06' E 118°35'0 0.1
2017-May-13 06:16S 20°06' E 118°35'0 0.2
2017-May-13 05:58S 20°06' E 118°35'0 0.2
2017-May-13 05:22S 20°06' E 118°36'0 0.1
2017-May-13 04:34S 20°06' E 118°36'0 0.0
2017-May-13 04:28S 20°06' E 118°36'0 0.0
2017-May-13 03:58S 20°06' E 118°36'0 0.1
2017-May-13 03:28S 20°06' E 118°36'0 0.1
2017-May-13 02:40S 20°06' E 118°36'0 0.0
2017-May-13 02:28S 20°06' E 118°36'0 0.0
2017-May-13 01:46S 20°07' E 118°36'0 0.0
2017-May-13 00:46S 20°07' E 118°36'0 0.1
2017-May-13 00:22S 20°06' E 118°36'0 0.0
2017-May-12 23:58S 20°06' E 118°36'0 0.0
2017-May-12 23:22S 20°06' E 118°36'0 0.3
2017-May-12 22:58S 20°06' E 118°36'0 0.3
2017-May-12 22:22S 20°06' E 118°35'0 0.0
2017-May-12 20:52S 20°06' E 118°35'0 0.1
2017-May-12 19:58S 20°06' E 118°35'0 0.1
2017-May-12 19:22S 20°06' E 118°35'0 0.1
2017-May-12 19:00S 20°06' E 118°35'1 1.1
2017-May-12 18:30S 20°06' E 118°35'1 1.7
2017-May-12 18:00S 20°07' E 118°36'1 2.6
2017-May-12 17:30S 20°07' E 118°34'2 3.8
2017-May-12 17:00S 20°05' E 118°33'3 6.5
2017-May-12 16:30S 20°02' E 118°32'4 8.7
2017-May-12 16:00S 19°58' E 118°29'510.3
2017-May-12 15:30S 19°54' E 118°27'611.0
2017-May-12 15:00S 19°48' E 118°26'1111.3
2017-May-12 14:00S 19°37' E 118°23'611.4
2017-May-12 13:30S 19°32' E 118°22'611.5
2017-May-12 13:00S 19°26' E 118°21'611.4
2017-May-12 12:29S 19°21' E 118°19'611.0
2017-May-12 11:59S 19°15' E 118°18'510.9
2017-May-12 11:29S 19°10' E 118°16'510.9
2017-May-12 11:00S 19°05' E 118°15'510.7
2017-May-12 10:29S 18°59' E 118°13'510.5
2017-May-12 10:00S 18°54' E 118°12'1010.1
2017-May-12 08:59S 18°45' E 118°09'73 8.8
2017-May-12 00:41S 17°33' E 117°52'1 7.3
2017-May-12 00:30S 17°32' E 117°52'21 9.7
2017-May-11 22:22S 17°12' E 117°47'  

Dump ship's entire track history